sensor_id;sensor_type;location;lat;lon;timestamp;temperature;humidity
6879;DHT22;3478;51.462;7.338;2022-08-18T00:04:36;20.30;99.90
6879;DHT22;3478;51.462;7.338;2022-08-18T00:09:40;20.20;99.90
6879;DHT22;3478;51.462;7.338;2022-08-18T00:14:43;20.10;99.90
6879;DHT22;3478;51.462;7.338;2022-08-18T00:19:45;20.10;99.90
6879;DHT22;3478;51.462;7.338;2022-08-18T00:24:51;20.00;99.90
6879;DHT22;3478;51.462;7.338;2022-08-18T00:29:54;20.00;99.90
6879;DHT22;3478;51.462;7.338;2022-08-18T00:34:56;20.00;99.90
6879;DHT22;3478;51.462;7.338;2022-08-18T00:39:59;20.10;99.90
6879;DHT22;3478;51.462;7.338;2022-08-18T00:45:04;20.10;99.90
6879;DHT22;3478;51.462;7.338;2022-08-18T00:50:07;20.10;99.90
6879;DHT22;3478;51.462;7.338;2022-08-18T00:55:11;20.10;99.90
6879;DHT22;3478;51.462;7.338;2022-08-18T01:00:13;20.10;99.90
6879;DHT22;3478;51.462;7.338;2022-08-18T01:05:21;20.10;99.90
6879;DHT22;3478;51.462;7.338;2022-08-18T01:10:26;20.00;99.90
6879;DHT22;3478;51.462;7.338;2022-08-18T01:15:27;19.90;99.90
6879;DHT22;3478;51.462;7.338;2022-08-18T01:20:35;19.90;99.90
6879;DHT22;3478;51.462;7.338;2022-08-18T01:25:56;19.90;99.90
6879;DHT22;3478;51.462;7.338;2022-08-18T01:31:02;19.80;99.90
6879;DHT22;3478;51.462;7.338;2022-08-18T01:36:09;19.80;99.90
6879;DHT22;3478;51.462;7.338;2022-08-18T01:41:16;19.80;99.90
6879;DHT22;3478;51.462;7.338;2022-08-18T01:46:19;19.70;99.90
6879;DHT22;3478;51.462;7.338;2022-08-18T01:51:21;19.70;99.90
6879;DHT22;3478;51.462;7.338;2022-08-18T01:56:25;19.60;99.90
6879;DHT22;3478;51.462;7.338;2022-08-18T02:01:27;19.60;99.90
6879;DHT22;3478;51.462;7.338;2022-08-18T02:06:29;19.60;99.90
6879;DHT22;3478;51.462;7.338;2022-08-18T02:11:32;19.50;99.90
6879;DHT22;3478;51.462;7.338;2022-08-18T02:16:34;19.40;99.90
6879;DHT22;3478;51.462;7.338;2022-08-18T02:21:36;19.50;99.90
6879;DHT22;3478;51.462;7.338;2022-08-18T02:26:39;19.30;99.90
6879;DHT22;3478;51.462;7.338;2022-08-18T02:31:42;19.20;99.90
6879;DHT22;3478;51.462;7.338;2022-08-18T02:36:44;19.20;99.90
6879;DHT22;3478;51.462;7.338;2022-08-18T02:41:47;19.10;99.90
6879;DHT22;3478;51.462;7.338;2022-08-18T02:46:51;19.20;99.90
6879;DHT22;3478;51.462;7.338;2022-08-18T02:51:54;19.20;99.90
6879;DHT22;3478;51.462;7.338;2022-08-18T02:56:57;19.30;99.90
6879;DHT22;3478;51.462;7.338;2022-08-18T03:01:59;19.30;99.90
6879;DHT22;3478;51.462;7.338;2022-08-18T03:07:03;19.30;99.90
6879;DHT22;3478;51.462;7.338;2022-08-18T03:12:07;19.30;99.90
6879;DHT22;3478;51.462;7.338;2022-08-18T03:17:09;19.40;99.90
6879;DHT22;3478;51.462;7.338;2022-08-18T03:22:14;19.40;99.90
6879;DHT22;3478;51.462;7.338;2022-08-18T03:27:17;19.40;99.90
6879;DHT22;3478;51.462;7.338;2022-08-18T03:32:19;19.50;99.90
6879;DHT22;3478;51.462;7.338;2022-08-18T03:37:21;19.40;99.90
6879;DHT22;3478;51.462;7.338;2022-08-18T03:42:24;19.40;99.90
6879;DHT22;3478;51.462;7.338;2022-08-18T03:47:26;19.40;99.90
6879;DHT22;3478;51.462;7.338;2022-08-18T03:52:28;19.30;99.90
6879;DHT22;3478;51.462;7.338;2022-08-18T03:57:31;19.30;99.90
6879;DHT22;3478;51.462;7.338;2022-08-18T04:02:33;19.40;99.90
6879;DHT22;3478;51.462;7.338;2022-08-18T04:07:35;19.40;99.90
6879;DHT22;3478;51.462;7.338;2022-08-18T04:12:39;19.40;99.90
6879;DHT22;3478;51.462;7.338;2022-08-18T04:17:42;19.40;99.90
6879;DHT22;3478;51.462;7.338;2022-08-18T04:22:45;19.30;99.90
6879;DHT22;3478;51.462;7.338;2022-08-18T04:27:48;19.30;99.90
6879;DHT22;3478;51.462;7.338;2022-08-18T04:32:50;19.20;99.90
6879;DHT22;3478;51.462;7.338;2022-08-18T04:37:52;19.20;99.90
6879;DHT22;3478;51.462;7.338;2022-08-18T04:42:55;19.30;99.90
6879;DHT22;3478;51.462;7.338;2022-08-18T04:47:57;19.30;99.90
6879;DHT22;3478;51.462;7.338;2022-08-18T04:58:03;19.30;99.90
6879;DHT22;3478;51.462;7.338;2022-08-18T05:03:05;19.40;99.90
6879;DHT22;3478;51.462;7.338;2022-08-18T05:08:07;19.40;99.90
6879;DHT22;3478;51.462;7.338;2022-08-18T05:13:10;19.50;99.90
6879;DHT22;3478;51.462;7.338;2022-08-18T05:18:16;19.40;99.90
6879;DHT22;3478;51.462;7.338;2022-08-18T05:23:19;19.50;99.90
6879;DHT22;3478;51.462;7.338;2022-08-18T05:28:22;19.60;99.90
6879;DHT22;3478;51.462;7.338;2022-08-18T05:33:24;19.60;99.90
6879;DHT22;3478;51.462;7.338;2022-08-18T05:38:45;19.50;99.90
6879;DHT22;3478;51.462;7.338;2022-08-18T05:43:52;19.50;99.90
6879;DHT22;3478;51.462;7.338;2022-08-18T05:48:55;19.40;99.90
6879;DHT22;3478;51.462;7.338;2022-08-18T05:53:57;19.50;99.90
6879;DHT22;3478;51.462;7.338;2022-08-18T05:59:22;19.50;99.90
6879;DHT22;3478;51.462;7.338;2022-08-18T06:04:32;19.50;99.90
6879;DHT22;3478;51.462;7.338;2022-08-18T06:09:39;19.60;99.90
6879;DHT22;3478;51.462;7.338;2022-08-18T06:14:44;19.70;99.90
6879;DHT22;3478;51.462;7.338;2022-08-18T06:19:54;19.90;99.90
6879;DHT22;3478;51.462;7.338;2022-08-18T06:25:02;19.90;99.90
6879;DHT22;3478;51.462;7.338;2022-08-18T06:30:13;19.80;99.90
6879;DHT22;3478;51.462;7.338;2022-08-18T06:35:21;19.80;99.90
6879;DHT22;3478;51.462;7.338;2022-08-18T06:40:27;19.90;99.90
6879;DHT22;3478;51.462;7.338;2022-08-18T06:45:34;19.90;99.90
6879;DHT22;3478;51.462;7.338;2022-08-18T06:50:43;19.90;99.90
6879;DHT22;3478;51.462;7.338;2022-08-18T06:55:48;19.90;99.90
6879;DHT22;3478;51.462;7.338;2022-08-18T07:00:58;19.90;99.90
6879;DHT22;3478;51.462;7.338;2022-08-18T07:06:03;20.00;99.90
6879;DHT22;3478;51.462;7.338;2022-08-18T07:11:12;19.90;99.90
6879;DHT22;3478;51.462;7.338;2022-08-18T07:16:24;19.90;99.90
6879;DHT22;3478;51.462;7.338;2022-08-18T07:21:33;19.90;99.90
6879;DHT22;3478;51.462;7.338;2022-08-18T07:26:59;19.80;99.90
6879;DHT22;3478;51.462;7.338;2022-08-18T07:32:09;19.90;99.90
6879;DHT22;3478;51.462;7.338;2022-08-18T07:37:17;20.10;99.90
6879;DHT22;3478;51.462;7.338;2022-08-18T07:42:27;20.30;99.90
6879;DHT22;3478;51.462;7.338;2022-08-18T07:47:38;20.40;99.90
6879;DHT22;3478;51.462;7.338;2022-08-18T07:52:48;20.30;99.90
6879;DHT22;3478;51.462;7.338;2022-08-18T07:57:58;20.20;99.90
6879;DHT22;3478;51.462;7.338;2022-08-18T08:03:19;20.00;99.90
6879;DHT22;3478;51.462;7.338;2022-08-18T08:08:34;20.00;99.90
6879;DHT22;3478;51.462;7.338;2022-08-18T08:13:51;20.10;99.90
6879;DHT22;3478;51.462;7.338;2022-08-18T08:19:06;20.30;99.90
6879;DHT22;3478;51.462;7.338;2022-08-18T08:24:16;20.40;99.90
6879;DHT22;3478;51.462;7.338;2022-08-18T08:29:26;20.50;99.90
6879;DHT22;3478;51.462;7.338;2022-08-18T08:34:36;20.70;99.90
6879;DHT22;3478;51.462;7.338;2022-08-18T08:39:44;20.80;99.90
6879;DHT22;3478;51.462;7.338;2022-08-18T08:44:51;20.80;99.90
6879;DHT22;3478;51.462;7.338;2022-08-18T08:50:01;20.90;99.90
6879;DHT22;3478;51.462;7.338;2022-08-18T08:55:08;21.10;99.90
6879;DHT22;3478;51.462;7.338;2022-08-18T09:00:12;21.40;99.90
6879;DHT22;3478;51.462;7.338;2022-08-18T09:05:20;21.70;99.90
6879;DHT22;3478;51.462;7.338;2022-08-18T09:10:41;22.10;99.90
6879;DHT22;3478;51.462;7.338;2022-08-18T09:16:04;22.50;99.90
6879;DHT22;3478;51.462;7.338;2022-08-18T09:21:23;22.70;99.90
6879;DHT22;3478;51.462;7.338;2022-08-18T09:26:40;22.40;99.90
6879;DHT22;3478;51.462;7.338;2022-08-18T09:31:44;22.50;99.90
6879;DHT22;3478;51.462;7.338;2022-08-18T09:37:02;22.50;99.90
6879;DHT22;3478;51.462;7.338;2022-08-18T09:42:08;22.60;99.90
6879;DHT22;3478;51.462;7.338;2022-08-18T09:47:12;23.00;99.90
6879;DHT22;3478;51.462;7.338;2022-08-18T09:52:57;23.20;99.90
6879;DHT22;3478;51.462;7.338;2022-08-18T09:58:15;23.40;99.90
6879;DHT22;3478;51.462;7.338;2022-08-18T10:03:22;23.50;99.90
6879;DHT22;3478;51.462;7.338;2022-08-18T10:14:31;23.50;99.90
6879;DHT22;3478;51.462;7.338;2022-08-18T10:19:42;23.50;99.90
6879;DHT22;3478;51.462;7.338;2022-08-18T10:24:53;23.40;99.90
6879;DHT22;3478;51.462;7.338;2022-08-18T10:29:59;23.20;99.90
6879;DHT22;3478;51.462;7.338;2022-08-18T10:35:01;23.30;99.90
6879;DHT22;3478;51.462;7.338;2022-08-18T10:40:11;23.30;99.90
6879;DHT22;3478;51.462;7.338;2022-08-18T10:45:21;23.40;99.90
6879;DHT22;3478;51.462;7.338;2022-08-18T10:50:25;23.40;99.90
6879;DHT22;3478;51.462;7.338;2022-08-18T10:55:47;23.60;99.90
6879;DHT22;3478;51.462;7.338;2022-08-18T11:01:02;23.70;99.90
6879;DHT22;3478;51.462;7.338;2022-08-18T11:06:07;23.70;99.90
6879;DHT22;3478;51.462;7.338;2022-08-18T11:11:13;23.70;99.90
6879;DHT22;3478;51.462;7.338;2022-08-18T11:16:33;23.60;99.90
6879;DHT22;3478;51.462;7.338;2022-08-18T11:21:40;23.90;99.90
6879;DHT22;3478;51.462;7.338;2022-08-18T11:26:45;24.00;99.90
6879;DHT22;3478;51.462;7.338;2022-08-18T11:31:51;24.90;99.90
6879;DHT22;3478;51.462;7.338;2022-08-18T11:36:56;25.10;99.90
6879;DHT22;3478;51.462;7.338;2022-08-18T11:41:58;25.30;99.90
6879;DHT22;3478;51.462;7.338;2022-08-18T11:47:15;25.20;99.90
6879;DHT22;3478;51.462;7.338;2022-08-18T11:52:21;24.90;99.90
6879;DHT22;3478;51.462;7.338;2022-08-18T11:57:39;24.50;99.90
6879;DHT22;3478;51.462;7.338;2022-08-18T12:02:43;24.40;99.90
6879;DHT22;3478;51.462;7.338;2022-08-18T12:07:45;24.70;99.90
6879;DHT22;3478;51.462;7.338;2022-08-18T12:12:49;24.90;99.90
6879;DHT22;3478;51.462;7.338;2022-08-18T12:17:53;25.00;99.90
6879;DHT22;3478;51.462;7.338;2022-08-18T12:22:55;24.90;99.90
6879;DHT22;3478;51.462;7.338;2022-08-18T12:27:57;24.80;99.90
6879;DHT22;3478;51.462;7.338;2022-08-18T12:33:01;24.70;99.90
6879;DHT22;3478;51.462;7.338;2022-08-18T12:38:03;24.90;99.90
6879;DHT22;3478;51.462;7.338;2022-08-18T12:43:05;25.00;99.90
6879;DHT22;3478;51.462;7.338;2022-08-18T12:48:08;24.90;99.90
6879;DHT22;3478;51.462;7.338;2022-08-18T12:53:11;24.80;99.90
6879;DHT22;3478;51.462;7.338;2022-08-18T12:58:13;24.70;99.90
6879;DHT22;3478;51.462;7.338;2022-08-18T13:03:16;24.90;99.90
6879;DHT22;3478;51.462;7.338;2022-08-18T13:08:20;25.10;99.90
6879;DHT22;3478;51.462;7.338;2022-08-18T13:13:22;25.20;99.90
6879;DHT22;3478;51.462;7.338;2022-08-18T13:18:25;25.60;99.90
6879;DHT22;3478;51.462;7.338;2022-08-18T13:23:29;26.30;99.90
6879;DHT22;3478;51.462;7.338;2022-08-18T13:28:33;26.80;99.90
6879;DHT22;3478;51.462;7.338;2022-08-18T13:33:36;27.10;99.90
6879;DHT22;3478;51.462;7.338;2022-08-18T13:38:39;27.00;99.90
6879;DHT22;3478;51.462;7.338;2022-08-18T13:43:43;27.20;99.90
6879;DHT22;3478;51.462;7.338;2022-08-18T13:48:47;27.10;99.90
6879;DHT22;3478;51.462;7.338;2022-08-18T13:53:49;27.30;99.90
6879;DHT22;3478;51.462;7.338;2022-08-18T13:58:51;27.40;99.90
6879;DHT22;3478;51.462;7.338;2022-08-18T14:03:54;27.70;99.90
6879;DHT22;3478;51.462;7.338;2022-08-18T14:08:56;28.70;99.90
6879;DHT22;3478;51.462;7.338;2022-08-18T14:13:59;29.80;99.90
6879;DHT22;3478;51.462;7.338;2022-08-18T14:19:03;30.20;99.90
6879;DHT22;3478;51.462;7.338;2022-08-18T14:24:23;30.80;99.00
6879;DHT22;3478;51.462;7.338;2022-08-18T14:29:42;31.60;96.80
6879;DHT22;3478;51.462;7.338;2022-08-18T14:34:48;30.80;96.10
6879;DHT22;3478;51.462;7.338;2022-08-18T14:39:51;29.90;96.50
6879;DHT22;3478;51.462;7.338;2022-08-18T14:44:53;28.90;96.70
6879;DHT22;3478;51.462;7.338;2022-08-18T14:49:56;27.90;98.10
6879;DHT22;3478;51.462;7.338;2022-08-18T14:54:59;27.50;99.30
6879;DHT22;3478;51.462;7.338;2022-08-18T15:00:03;27.50;99.10
6879;DHT22;3478;51.462;7.338;2022-08-18T15:05:10;28.60;98.80
6879;DHT22;3478;51.462;7.338;2022-08-18T15:10:13;30.30;94.40
6879;DHT22;3478;51.462;7.338;2022-08-18T15:15:17;31.60;93.40
6879;DHT22;3478;51.462;7.338;2022-08-18T15:20:23;32.30;90.90
6879;DHT22;3478;51.462;7.338;2022-08-18T15:25:25;32.60;89.10
6879;DHT22;3478;51.462;7.338;2022-08-18T15:30:50;31.80;86.60
6879;DHT22;3478;51.462;7.338;2022-08-18T15:35:54;32.60;85.20
6879;DHT22;3478;51.462;7.338;2022-08-18T15:40:58;32.30;83.00
6879;DHT22;3478;51.462;7.338;2022-08-18T15:46:01;31.90;85.30
6879;DHT22;3478;51.462;7.338;2022-08-18T15:51:04;32.00;82.90
6879;DHT22;3478;51.462;7.338;2022-08-18T15:56:12;32.40;80.40
6879;DHT22;3478;51.462;7.338;2022-08-18T16:01:14;31.90;80.50
6879;DHT22;3478;51.462;7.338;2022-08-18T16:06:19;31.60;80.30
6879;DHT22;3478;51.462;7.338;2022-08-18T16:11:23;31.20;83.20
6879;DHT22;3478;51.462;7.338;2022-08-18T16:16:25;31.20;82.10
6879;DHT22;3478;51.462;7.338;2022-08-18T16:21:28;31.40;80.40
6879;DHT22;3478;51.462;7.338;2022-08-18T16:26:30;31.50;81.60
6879;DHT22;3478;51.462;7.338;2022-08-18T16:31:32;31.90;80.80
6879;DHT22;3478;51.462;7.338;2022-08-18T16:36:35;31.80;81.20
6879;DHT22;3478;51.462;7.338;2022-08-18T16:41:37;31.60;79.50
6879;DHT22;3478;51.462;7.338;2022-08-18T16:46:39;31.70;83.00
6879;DHT22;3478;51.462;7.338;2022-08-18T16:51:42;31.60;81.20
6879;DHT22;3478;51.462;7.338;2022-08-18T16:56:45;30.70;84.20
6879;DHT22;3478;51.462;7.338;2022-08-18T17:01:47;29.90;85.30
6879;DHT22;3478;51.462;7.338;2022-08-18T17:07:07;29.30;88.10
6879;DHT22;3478;51.462;7.338;2022-08-18T17:12:09;28.60;89.70
6879;DHT22;3478;51.462;7.338;2022-08-18T17:17:11;28.00;91.20
6879;DHT22;3478;51.462;7.338;2022-08-18T17:22:15;27.70;92.60
6879;DHT22;3478;51.462;7.338;2022-08-18T17:27:19;27.40;92.60
6879;DHT22;3478;51.462;7.338;2022-08-18T17:32:25;27.20;93.20
6879;DHT22;3478;51.462;7.338;2022-08-18T17:37:33;27.10;93.90
6879;DHT22;3478;51.462;7.338;2022-08-18T17:42:36;26.70;94.40
6879;DHT22;3478;51.462;7.338;2022-08-18T17:47:48;26.50;95.60
6879;DHT22;3478;51.462;7.338;2022-08-18T17:52:57;26.20;96.40
6879;DHT22;3478;51.462;7.338;2022-08-18T17:58:04;25.90;97.80
6879;DHT22;3478;51.462;7.338;2022-08-18T18:03:07;25.70;98.70
6879;DHT22;3478;51.462;7.338;2022-08-18T18:08:10;25.50;99.40
6879;DHT22;3478;51.462;7.338;2022-08-18T18:13:21;25.30;99.90
6879;DHT22;3478;51.462;7.338;2022-08-18T18:18:33;25.20;99.90
6879;DHT22;3478;51.462;7.338;2022-08-18T18:23:39;25.10;99.90
6879;DHT22;3478;51.462;7.338;2022-08-18T18:28:42;24.90;99.90
6879;DHT22;3478;51.462;7.338;2022-08-18T18:33:44;24.80;99.90
6879;DHT22;3478;51.462;7.338;2022-08-18T18:39:03;24.70;99.90
6879;DHT22;3478;51.462;7.338;2022-08-18T18:44:09;24.70;99.90
6879;DHT22;3478;51.462;7.338;2022-08-18T18:49:17;24.60;99.90
6879;DHT22;3478;51.462;7.338;2022-08-18T18:54:37;24.50;99.90
6879;DHT22;3478;51.462;7.338;2022-08-18T18:59:50;24.30;99.90
6879;DHT22;3478;51.462;7.338;2022-08-18T19:05:06;24.10;99.90
6879;DHT22;3478;51.462;7.338;2022-08-18T19:10:15;24.00;99.90
6879;DHT22;3478;51.462;7.338;2022-08-18T19:15:20;23.80;99.90
6879;DHT22;3478;51.462;7.338;2022-08-18T19:20:26;23.70;99.90
6879;DHT22;3478;51.462;7.338;2022-08-18T19:25:33;23.70;99.90
6879;DHT22;3478;51.462;7.338;2022-08-18T19:30:39;23.60;99.90
6879;DHT22;3478;51.462;7.338;2022-08-18T19:35:50;23.60;99.90
6879;DHT22;3478;51.462;7.338;2022-08-18T19:41:01;23.60;99.90
6879;DHT22;3478;51.462;7.338;2022-08-18T19:46:11;23.50;99.90
6879;DHT22;3478;51.462;7.338;2022-08-18T19:51:23;23.40;99.90
6879;DHT22;3478;51.462;7.338;2022-08-18T19:56:41;23.20;99.90
6879;DHT22;3478;51.462;7.338;2022-08-18T20:02:09;23.10;99.90
6879;DHT22;3478;51.462;7.338;2022-08-18T20:07:40;22.90;99.90
6879;DHT22;3478;51.462;7.338;2022-08-18T20:13:07;22.80;99.90
6879;DHT22;3478;51.462;7.338;2022-08-18T20:18:19;22.80;99.90
6879;DHT22;3478;51.462;7.338;2022-08-18T20:23:30;22.80;99.90
6879;DHT22;3478;51.462;7.338;2022-08-18T20:28:37;22.70;99.90
6879;DHT22;3478;51.462;7.338;2022-08-18T20:33:44;22.60;99.90
6879;DHT22;3478;51.462;7.338;2022-08-18T20:38:48;22.50;99.90
6879;DHT22;3478;51.462;7.338;2022-08-18T20:43:53;22.40;99.90
6879;DHT22;3478;51.462;7.338;2022-08-18T20:49:10;22.30;99.90
6879;DHT22;3478;51.462;7.338;2022-08-18T20:54:25;22.20;99.90
6879;DHT22;3478;51.462;7.338;2022-08-18T20:59:37;22.20;99.90
6879;DHT22;3478;51.462;7.338;2022-08-18T21:04:46;22.20;99.90
6879;DHT22;3478;51.462;7.338;2022-08-18T21:09:50;22.10;99.90
6879;DHT22;3478;51.462;7.338;2022-08-18T21:14:56;22.00;99.90
6879;DHT22;3478;51.462;7.338;2022-08-18T21:20:01;22.00;99.90
6879;DHT22;3478;51.462;7.338;2022-08-18T21:25:08;22.00;99.90
6879;DHT22;3478;51.462;7.338;2022-08-18T21:30:17;21.90;99.90
6879;DHT22;3478;51.462;7.338;2022-08-18T21:35:22;21.80;99.90
6879;DHT22;3478;51.462;7.338;2022-08-18T21:40:35;21.60;99.90
6879;DHT22;3478;51.462;7.338;2022-08-18T21:45:44;21.50;99.90
6879;DHT22;3478;51.462;7.338;2022-08-18T21:50:53;21.40;99.90
6879;DHT22;3478;51.462;7.338;2022-08-18T21:55:58;21.30;99.90
6879;DHT22;3478;51.462;7.338;2022-08-18T22:01:11;21.30;99.90
6879;DHT22;3478;51.462;7.338;2022-08-18T22:06:20;21.20;99.90
6879;DHT22;3478;51.462;7.338;2022-08-18T22:11:31;21.10;99.90
6879;DHT22;3478;51.462;7.338;2022-08-18T22:16:52;21.00;99.90
6879;DHT22;3478;51.462;7.338;2022-08-18T22:21:58;20.90;99.90
6879;DHT22;3478;51.462;7.338;2022-08-18T22:27:05;20.80;99.90
6879;DHT22;3478;51.462;7.338;2022-08-18T22:32:09;20.80;99.90
6879;DHT22;3478;51.462;7.338;2022-08-18T22:37:15;20.80;99.90
6879;DHT22;3478;51.462;7.338;2022-08-18T22:42:19;20.80;99.90
6879;DHT22;3478;51.462;7.338;2022-08-18T22:47:23;20.90;99.90
6879;DHT22;3478;51.462;7.338;2022-08-18T22:52:28;20.90;99.90
6879;DHT22;3478;51.462;7.338;2022-08-18T22:57:30;20.80;99.90
6879;DHT22;3478;51.462;7.338;2022-08-18T23:02:35;20.80;99.90
6879;DHT22;3478;51.462;7.338;2022-08-18T23:07:37;20.80;99.90
6879;DHT22;3478;51.462;7.338;2022-08-18T23:12:39;20.70;99.90
6879;DHT22;3478;51.462;7.338;2022-08-18T23:17:42;20.50;99.90
6879;DHT22;3478;51.462;7.338;2022-08-18T23:22:44;20.40;99.90
6879;DHT22;3478;51.462;7.338;2022-08-18T23:27:47;20.30;99.90
6879;DHT22;3478;51.462;7.338;2022-08-18T23:32:50;20.30;99.90
6879;DHT22;3478;51.462;7.338;2022-08-18T23:37:52;20.30;99.90
6879;DHT22;3478;51.462;7.338;2022-08-18T23:42:55;20.30;99.90
6879;DHT22;3478;51.462;7.338;2022-08-18T23:47:58;20.30;99.90
6879;DHT22;3478;51.462;7.338;2022-08-18T23:53:00;20.20;99.90
6879;DHT22;3478;51.462;7.338;2022-08-18T23:58:03;20.00;99.90
